createdAt,value
2022-12-02T00:00:40.669Z,0.00
2022-12-02T00:01:30.657Z,0.00
2022-12-02T00:02:20.658Z,0.00
2022-12-02T00:03:10.720Z,0.00
2022-12-02T00:04:00.737Z,0.00
2022-12-02T00:04:50.860Z,0.00
2022-12-02T00:05:40.613Z,0.00
2022-12-02T00:06:30.588Z,0.00
2022-12-02T00:07:20.593Z,0.00
2022-12-02T00:08:10.864Z,0.00
2022-12-02T00:09:00.556Z,0.00
2022-12-02T00:09:50.567Z,0.00
2022-12-02T00:10:40.549Z,0.00
2022-12-02T00:11:30.558Z,0.00
2022-12-02T00:12:20.535Z,0.00
2022-12-02T00:13:10.535Z,0.00
2022-12-02T00:14:00.724Z,0.00
2022-12-02T00:14:50.845Z,0.00
2022-12-02T00:15:40.523Z,0.00
2022-12-02T00:16:30.526Z,0.00
2022-12-02T00:17:20.497Z,0.00
2022-12-02T00:18:10.507Z,0.00
2022-12-02T00:19:00.472Z,0.00
2022-12-02T00:19:50.487Z,0.00
2022-12-02T00:20:40.443Z,0.00
2022-12-02T00:21:30.444Z,0.00
2022-12-02T00:22:20.411Z,0.00
2022-12-02T00:23:10.410Z,0.00
2022-12-02T00:24:00.433Z,0.00
2022-12-02T00:24:50.890Z,0.00
2022-12-02T00:25:40.394Z,0.00
2022-12-02T00:26:30.394Z,0.00
2022-12-02T00:27:20.416Z,0.00
2022-12-02T00:28:10.371Z,0.00
2022-12-02T00:29:00.395Z,0.00
2022-12-02T00:29:50.353Z,0.00
2022-12-02T00:30:40.332Z,0.00
2022-12-02T00:31:30.424Z,0.00
2022-12-02T00:32:20.324Z,0.00
2022-12-02T00:33:10.551Z,0.00
2022-12-02T00:34:00.288Z,0.00
2022-12-02T00:34:50.482Z,0.00
2022-12-02T00:35:40.284Z,0.00
2022-12-02T00:36:30.267Z,0.00
2022-12-02T00:37:20.252Z,0.00
2022-12-02T00:38:10.268Z,0.00
2022-12-02T00:39:00.450Z,0.00
2022-12-02T00:39:50.221Z,0.00
2022-12-02T00:40:40.210Z,0.00
2022-12-02T00:41:30.224Z,0.00
2022-12-02T00:42:20.201Z,0.00
2022-12-02T00:43:10.185Z,0.00
2022-12-02T00:44:00.237Z,0.00
2022-12-02T00:44:50.505Z,0.00
2022-12-02T00:45:40.236Z,0.00
2022-12-02T00:46:30.167Z,0.00
2022-12-02T00:47:20.163Z,0.00
2022-12-02T00:48:10.140Z,0.00
2022-12-02T00:49:00.119Z,0.00
2022-12-02T00:49:50.130Z,0.00
2022-12-02T00:50:40.119Z,0.00
2022-12-02T00:51:30.110Z,0.00
2022-12-02T00:52:20.092Z,0.00
2022-12-02T00:53:10.089Z,0.00
2022-12-02T00:54:00.089Z,0.00
2022-12-02T00:54:50.226Z,0.00
2022-12-02T00:55:40.087Z,0.00
2022-12-02T00:56:30.257Z,0.00
2022-12-02T00:57:20.031Z,0.00
2022-12-02T00:58:10.019Z,0.00
2022-12-02T00:58:59.998Z,0.00
2022-12-02T00:59:50.057Z,0.00
2022-12-02T01:00:39.997Z,0.00
2022-12-02T01:01:30.017Z,0.00
2022-12-02T01:02:20.022Z,0.00
2022-12-02T01:03:09.964Z,0.00
2022-12-02T01:03:59.968Z,0.00
2022-12-02T01:04:50.187Z,0.00
2022-12-02T01:05:39.945Z,0.00
2022-12-02T01:06:29.926Z,0.00
2022-12-02T01:07:19.939Z,0.00
2022-12-02T01:08:10.020Z,0.00
2022-12-02T01:08:59.917Z,0.00
2022-12-02T01:09:49.905Z,0.00
2022-12-02T01:10:39.888Z,0.00
2022-12-02T01:11:29.886Z,0.00
2022-12-02T01:12:19.895Z,0.00
2022-12-02T01:13:09.865Z,0.00
2022-12-02T01:13:59.874Z,0.00
2022-12-02T01:14:50.088Z,0.00
2022-12-02T01:15:39.835Z,0.00
2022-12-02T01:16:29.914Z,0.00
2022-12-02T01:17:19.805Z,0.00
2022-12-02T01:18:09.805Z,0.00
2022-12-02T01:18:59.805Z,0.00
2022-12-02T01:19:49.796Z,0.00
2022-12-02T01:20:39.783Z,0.00
2022-12-02T01:21:29.761Z,0.00
2022-12-02T01:22:19.773Z,0.00
2022-12-02T01:23:09.752Z,0.00
2022-12-02T01:23:59.768Z,0.00
2022-12-02T01:24:50.045Z,0.00
2022-12-02T01:25:39.710Z,0.00
2022-12-02T01:26:29.732Z,0.00
2022-12-02T01:27:19.700Z,0.00
2022-12-02T01:28:09.713Z,0.00
2022-12-02T01:28:59.699Z,0.00
2022-12-02T01:29:49.661Z,0.00
2022-12-02T01:30:39.651Z,0.00
2022-12-02T01:31:29.686Z,0.00
2022-12-02T01:32:19.684Z,0.00
2022-12-02T01:33:09.629Z,0.00
2022-12-02T01:33:59.624Z,0.00
2022-12-02T01:34:49.860Z,0.00
2022-12-02T01:35:39.592Z,0.00
2022-12-02T01:36:29.603Z,0.00
2022-12-02T01:37:19.580Z,0.00
2022-12-02T01:38:09.637Z,0.00
2022-12-02T01:38:59.581Z,0.00
2022-12-02T01:39:49.568Z,0.00
2022-12-02T01:40:39.561Z,0.00
2022-12-02T01:41:29.559Z,0.00
2022-12-02T01:42:19.555Z,0.00
2022-12-02T01:43:09.520Z,0.00
2022-12-02T01:43:59.712Z,0.00
2022-12-02T01:44:49.699Z,0.00
2022-12-02T01:45:39.560Z,0.00
2022-12-02T01:46:29.479Z,0.00
2022-12-02T01:47:19.473Z,0.00
2022-12-02T01:48:09.472Z,0.00
2022-12-02T01:48:59.470Z,0.00
2022-12-02T01:49:49.478Z,0.00
2022-12-02T01:50:39.449Z,0.00
2022-12-02T01:51:29.427Z,0.00
2022-12-02T01:52:19.417Z,0.00
2022-12-02T01:53:09.435Z,0.00
2022-12-02T01:53:59.396Z,0.00
2022-12-02T01:54:49.889Z,0.00
2022-12-02T01:55:39.623Z,0.00
2022-12-02T01:56:29.376Z,0.00
2022-12-02T01:57:19.378Z,0.00
2022-12-02T01:58:09.354Z,0.00
2022-12-02T01:58:59.347Z,0.00
2022-12-02T01:59:49.355Z,0.00
2022-12-02T02:00:39.329Z,0.00
2022-12-02T02:01:29.413Z,0.00
2022-12-02T02:02:19.349Z,0.00
2022-12-02T02:03:09.305Z,0.00
2022-12-02T02:03:59.303Z,0.00
2022-12-02T02:04:49.683Z,0.00
2022-12-02T02:05:39.264Z,0.00
2022-12-02T02:06:29.271Z,0.00
2022-12-02T02:07:19.293Z,0.00
2022-12-02T02:08:09.324Z,0.00
2022-12-02T02:08:59.246Z,0.00
2022-12-02T02:09:49.225Z,0.00
2022-12-02T02:10:39.226Z,0.00
2022-12-02T02:11:29.223Z,0.00
2022-12-02T02:12:19.203Z,0.00
2022-12-02T02:13:09.244Z,0.00
2022-12-02T02:13:59.185Z,0.00
2022-12-02T02:14:49.532Z,0.00
2022-12-02T02:15:39.177Z,0.00
2022-12-02T02:16:29.215Z,0.00
2022-12-02T02:17:19.135Z,0.00
2022-12-02T02:18:09.132Z,0.00
2022-12-02T02:18:59.239Z,0.00
2022-12-02T02:19:49.128Z,0.00
2022-12-02T02:20:39.098Z,0.00
2022-12-02T02:21:29.121Z,0.00
2022-12-02T02:22:19.090Z,0.00
2022-12-02T02:23:09.096Z,0.00
2022-12-02T02:23:59.081Z,0.00
2022-12-02T02:24:49.498Z,0.00
2022-12-02T02:25:39.052Z,0.00
2022-12-02T02:26:29.051Z,0.00
2022-12-02T02:27:19.032Z,0.00
2022-12-02T02:28:09.044Z,0.00
2022-12-02T02:28:59.243Z,0.00
2022-12-02T02:29:49.021Z,0.00
2022-12-02T02:30:39.039Z,0.00
2022-12-02T02:31:28.985Z,0.00
2022-12-02T02:32:18.977Z,0.00
2022-12-02T02:33:08.963Z,0.00
2022-12-02T02:33:58.970Z,0.00
2022-12-02T02:34:49.381Z,0.00
2022-12-02T02:35:38.947Z,0.00
2022-12-02T02:36:28.947Z,0.00
2022-12-02T02:37:18.926Z,0.00
2022-12-02T02:38:08.917Z,0.00
2022-12-02T02:38:58.907Z,0.00
2022-12-02T02:39:48.891Z,0.00
2022-12-02T02:40:38.877Z,0.00
2022-12-02T02:41:28.907Z,0.00
2022-12-02T02:42:18.861Z,0.00
2022-12-02T02:43:08.868Z,0.00
2022-12-02T02:43:58.861Z,0.00
2022-12-02T02:44:49.118Z,0.00
2022-12-02T02:45:38.864Z,0.00
2022-12-02T02:46:28.931Z,0.00
2022-12-02T02:47:18.837Z,0.00
2022-12-02T02:48:08.808Z,0.00
2022-12-02T02:48:58.804Z,0.00
2022-12-02T02:49:48.797Z,0.00
2022-12-02T02:50:38.779Z,0.00
2022-12-02T02:51:28.765Z,0.00
2022-12-02T02:52:18.753Z,0.00
2022-12-02T02:53:08.776Z,0.00
2022-12-02T02:53:58.752Z,0.00
2022-12-02T02:54:49.017Z,0.00
2022-12-02T02:55:38.706Z,0.00
2022-12-02T02:56:28.774Z,0.00
2022-12-02T02:57:18.693Z,0.00
2022-12-02T02:58:08.689Z,0.00
2022-12-02T02:58:58.714Z,0.00
2022-12-02T02:59:48.685Z,0.00
2022-12-02T03:00:38.664Z,0.00
2022-12-02T03:01:28.715Z,0.00
2022-12-02T03:02:18.699Z,0.00
2022-12-02T03:03:08.656Z,0.00
2022-12-02T03:03:58.621Z,0.00
2022-12-02T03:04:48.934Z,0.00
2022-12-02T03:05:38.611Z,0.00
2022-12-02T03:06:28.612Z,0.00
2022-12-02T03:07:18.594Z,0.00
2022-12-02T03:08:08.670Z,0.00
2022-12-02T03:08:58.572Z,0.00
2022-12-02T03:09:48.574Z,0.00
2022-12-02T03:10:38.566Z,0.00
2022-12-02T03:11:28.552Z,0.00
2022-12-02T03:12:18.529Z,0.00
2022-12-02T03:13:08.544Z,0.00
2022-12-02T03:13:58.513Z,0.00
2022-12-02T03:14:48.925Z,0.00
2022-12-02T03:15:38.503Z,0.00
2022-12-02T03:16:28.616Z,0.00
2022-12-02T03:17:18.488Z,0.00
2022-12-02T03:18:08.470Z,0.00
2022-12-02T03:18:58.502Z,0.00
2022-12-02T03:19:48.459Z,0.00
2022-12-02T03:20:38.442Z,0.00
2022-12-02T03:21:28.438Z,0.00
2022-12-02T03:22:18.497Z,0.00
2022-12-02T03:23:08.408Z,0.00
2022-12-02T03:23:58.422Z,0.00
2022-12-02T03:24:48.522Z,0.00
2022-12-02T03:25:38.372Z,0.00
2022-12-02T03:26:28.380Z,0.00
2022-12-02T03:27:18.361Z,0.00
2022-12-02T03:28:08.382Z,0.00
2022-12-02T03:28:58.339Z,0.00
2022-12-02T03:29:48.367Z,0.00
2022-12-02T03:30:38.352Z,0.00
2022-12-02T03:31:28.349Z,0.00
2022-12-02T03:32:18.307Z,0.00
2022-12-02T03:33:08.298Z,0.00
2022-12-02T03:33:58.329Z,0.00
2022-12-02T03:34:48.473Z,0.00
2022-12-02T03:35:38.268Z,0.00
2022-12-02T03:36:28.264Z,0.00
2022-12-02T03:37:18.277Z,0.00
2022-12-02T03:38:08.238Z,0.00
2022-12-02T03:38:58.256Z,0.00
2022-12-02T03:39:48.236Z,0.00
2022-12-02T03:40:38.221Z,0.00
2022-12-02T03:41:28.206Z,0.00
2022-12-02T03:42:18.232Z,0.00
2022-12-02T03:43:08.234Z,0.00
2022-12-02T03:43:58.176Z,0.00
2022-12-02T03:44:48.271Z,0.00
2022-12-02T03:45:38.165Z,0.00
2022-12-02T03:46:28.230Z,0.00
2022-12-02T03:47:18.198Z,0.00
2022-12-02T03:48:08.144Z,0.00
2022-12-02T03:48:58.163Z,0.00
2022-12-02T03:49:48.121Z,0.00
2022-12-02T03:50:38.109Z,0.00
2022-12-02T03:51:28.093Z,0.00
2022-12-02T03:52:18.128Z,0.00
2022-12-02T03:53:08.066Z,0.00
2022-12-02T03:53:58.092Z,0.00
2022-12-02T03:54:53.455Z,0.00
2022-12-02T03:55:39.065Z,0.00
2022-12-02T03:56:28.063Z,0.00
2022-12-02T03:57:18.040Z,0.00
2022-12-02T03:58:08.023Z,0.00
2022-12-02T03:58:58.014Z,0.00
2022-12-02T03:59:47.997Z,0.00
2022-12-02T04:00:38.252Z,0.00
2022-12-02T04:01:28.035Z,0.00
2022-12-02T04:02:18.031Z,0.00
2022-12-02T04:03:08.015Z,0.00
2022-12-02T04:03:57.982Z,0.00
2022-12-02T04:04:48.015Z,0.00
2022-12-02T04:05:37.939Z,0.00
2022-12-02T04:06:27.968Z,0.00
2022-12-02T04:07:17.917Z,0.00
2022-12-02T04:08:07.954Z,0.00
2022-12-02T04:08:57.910Z,0.00
2022-12-02T04:09:47.899Z,0.00
2022-12-02T04:10:37.904Z,0.00
2022-12-02T04:11:27.882Z,0.00
2022-12-02T04:12:17.909Z,0.00
2022-12-02T04:13:07.871Z,0.00
2022-12-02T04:13:57.867Z,0.00
2022-12-02T04:14:47.845Z,0.00
2022-12-02T04:15:37.861Z,0.00
2022-12-02T04:16:27.901Z,0.00
2022-12-02T04:17:17.810Z,0.00
2022-12-02T04:18:07.838Z,0.00
2022-12-02T04:18:57.804Z,0.00
2022-12-02T04:19:47.768Z,0.00
2022-12-02T04:20:37.777Z,0.00
2022-12-02T04:21:28.008Z,0.00
2022-12-02T04:22:17.766Z,0.00
2022-12-02T04:23:07.757Z,0.00
2022-12-02T04:23:57.771Z,0.00
2022-12-02T04:24:47.725Z,0.00
2022-12-02T04:25:37.720Z,0.00
2022-12-02T04:26:27.707Z,0.00
2022-12-02T04:27:17.686Z,0.00
2022-12-02T04:28:07.680Z,0.00
2022-12-02T04:28:57.708Z,0.00
2022-12-02T04:29:47.664Z,0.00
2022-12-02T04:30:37.670Z,0.00
2022-12-02T04:31:27.735Z,0.00
2022-12-02T04:32:17.648Z,0.00
2022-12-02T04:33:07.636Z,0.00
2022-12-02T04:33:57.647Z,0.00
2022-12-02T04:34:47.664Z,0.00
2022-12-02T04:35:37.596Z,0.00
2022-12-02T04:36:27.616Z,0.00
2022-12-02T04:37:17.576Z,0.00
2022-12-02T04:38:11.969Z,0.00
2022-12-02T04:38:58.566Z,0.00
2022-12-02T04:39:47.566Z,0.00
2022-12-02T04:40:37.565Z,0.00
2022-12-02T04:41:27.526Z,0.00
2022-12-02T04:42:17.576Z,0.00
2022-12-02T04:43:07.546Z,0.00
2022-12-02T04:43:57.530Z,0.00
2022-12-02T04:44:47.526Z,0.00
2022-12-02T04:45:37.499Z,0.00
2022-12-02T04:46:27.620Z,0.00
2022-12-02T04:47:17.486Z,0.00
2022-12-02T04:48:07.483Z,0.00
2022-12-02T04:48:57.468Z,0.00
2022-12-02T04:49:47.451Z,0.00
2022-12-02T04:50:37.462Z,0.00
2022-12-02T04:51:27.434Z,0.00
2022-12-02T04:52:17.453Z,0.00
2022-12-02T04:53:07.416Z,0.00
2022-12-02T04:53:57.408Z,0.00
2022-12-02T04:54:47.400Z,0.00
2022-12-02T04:55:37.412Z,0.00
2022-12-02T04:56:27.390Z,0.00
2022-12-02T04:57:17.362Z,0.00
2022-12-02T04:58:07.567Z,0.00
2022-12-02T04:58:57.341Z,0.00
2022-12-02T04:59:47.324Z,0.00
2022-12-02T05:00:37.334Z,0.00
2022-12-02T05:01:27.323Z,0.00
2022-12-02T05:02:17.340Z,0.00
2022-12-02T05:03:07.367Z,0.00
2022-12-02T05:03:57.381Z,0.00
2022-12-02T05:04:47.338Z,0.00
2022-12-02T05:05:37.276Z,0.00
2022-12-02T05:06:27.248Z,0.00
2022-12-02T05:07:17.283Z,0.00
2022-12-02T05:08:07.266Z,0.00
2022-12-02T05:08:57.243Z,0.00
2022-12-02T05:09:47.263Z,0.00
2022-12-02T05:10:37.208Z,0.00
2022-12-02T05:11:29.814Z,0.00
2022-12-02T05:12:17.208Z,0.00
2022-12-02T05:13:07.197Z,0.00
2022-12-02T05:13:57.189Z,0.00
2022-12-02T05:14:47.187Z,0.00
2022-12-02T05:15:47.999Z,0.00
2022-12-02T05:16:27.202Z,0.00
2022-12-02T05:17:17.167Z,0.00
2022-12-02T05:18:07.176Z,0.00
2022-12-02T05:18:57.120Z,0.00
2022-12-02T05:19:47.105Z,0.00
2022-12-02T05:20:37.157Z,0.00
2022-12-02T05:21:27.108Z,0.00
2022-12-02T05:22:17.096Z,0.00
2022-12-02T05:23:07.077Z,0.00
2022-12-02T05:23:57.152Z,0.00
2022-12-02T05:24:47.074Z,0.00
2022-12-02T05:25:37.057Z,0.00
2022-12-02T05:26:27.040Z,0.00
2022-12-02T05:27:17.032Z,0.00
2022-12-02T05:28:07.013Z,0.00
2022-12-02T05:28:57.054Z,0.00
2022-12-02T05:29:47.036Z,0.00
2022-12-02T05:30:37.002Z,0.00
2022-12-02T05:31:27.038Z,0.00
2022-12-02T05:32:16.988Z,0.00
2022-12-02T05:33:06.968Z,0.00
2022-12-02T05:33:57.000Z,0.00
2022-12-02T05:34:46.936Z,0.00
2022-12-02T05:35:37.154Z,0.00
2022-12-02T05:36:26.927Z,0.00
2022-12-02T05:37:16.963Z,0.00
2022-12-02T05:38:06.903Z,0.00
2022-12-02T05:38:56.896Z,0.00
2022-12-02T05:39:46.900Z,0.00
2022-12-02T05:40:36.881Z,0.00
2022-12-02T05:41:28.923Z,0.00
2022-12-02T05:42:16.867Z,0.00
2022-12-02T05:43:06.850Z,0.00
2022-12-02T05:43:56.839Z,0.00
2022-12-02T05:44:46.844Z,0.00
2022-12-02T05:45:36.883Z,0.00
2022-12-02T05:46:26.872Z,0.00
2022-12-02T05:47:57.141Z,0.00
2022-12-02T05:48:06.801Z,0.00
2022-12-02T05:48:56.858Z,0.00
2022-12-02T05:49:46.780Z,0.00
2022-12-02T05:50:36.794Z,0.00
2022-12-02T05:51:26.778Z,0.00
2022-12-02T05:52:16.757Z,0.00
2022-12-02T05:53:14.316Z,0.00
2022-12-02T05:53:56.750Z,0.00
2022-12-02T05:54:46.729Z,0.00
2022-12-02T05:55:36.719Z,0.00
2022-12-02T05:56:26.710Z,0.00
2022-12-02T05:57:16.697Z,0.00
2022-12-02T05:58:06.692Z,0.00
2022-12-02T05:59:43.409Z,0.00
2022-12-02T05:59:48.098Z,0.00
2022-12-02T06:00:38.080Z,0.00
2022-12-02T06:01:28.050Z,0.00
2022-12-02T06:02:18.223Z,0.00
2022-12-02T06:03:08.136Z,0.00
2022-12-02T06:03:58.047Z,0.00
2022-12-02T06:04:48.184Z,0.00
2022-12-02T06:05:38.007Z,0.00
2022-12-02T06:06:28.016Z,0.00
2022-12-02T06:07:18.007Z,0.00
2022-12-02T06:08:08.078Z,0.00
2022-12-02T06:08:57.975Z,0.00
2022-12-02T06:09:47.976Z,0.00
2022-12-02T06:10:38.186Z,0.00
2022-12-02T06:11:27.960Z,0.00
2022-12-02T06:12:17.946Z,0.00
2022-12-02T06:13:07.979Z,0.00
2022-12-02T06:13:57.916Z,0.00
2022-12-02T06:14:48.079Z,0.00
2022-12-02T06:15:37.916Z,0.00
2022-12-02T06:16:28.027Z,0.00
2022-12-02T06:17:17.886Z,0.00
2022-12-02T06:18:07.875Z,0.00
2022-12-02T06:18:57.883Z,0.00
2022-12-02T06:19:47.845Z,0.00
2022-12-02T06:20:37.857Z,0.00
2022-12-02T06:21:27.898Z,0.00
2022-12-02T06:22:17.865Z,0.00
2022-12-02T06:23:07.813Z,0.00
2022-12-02T06:23:57.909Z,0.00
2022-12-02T06:24:47.801Z,0.00
2022-12-02T06:25:37.802Z,0.00
2022-12-02T06:26:27.792Z,0.00
2022-12-02T06:27:17.780Z,0.00
2022-12-02T06:28:10.656Z,0.00
2022-12-02T06:28:57.753Z,0.00
2022-12-02T06:29:47.751Z,0.00
2022-12-02T06:30:37.735Z,0.00
2022-12-02T06:31:27.778Z,0.00
2022-12-02T06:32:17.770Z,0.00
2022-12-02T06:33:07.702Z,0.00
2022-12-02T06:33:57.781Z,0.00
2022-12-02T06:34:47.690Z,0.00
2022-12-02T06:35:37.694Z,0.00
2022-12-02T06:36:27.662Z,0.00
2022-12-02T06:37:17.669Z,0.00
2022-12-02T06:38:07.685Z,0.00
2022-12-02T06:38:57.641Z,0.00
2022-12-02T06:40:11.978Z,0.00
2022-12-02T06:40:38.631Z,0.00
2022-12-02T06:41:27.618Z,0.00
2022-12-02T06:42:17.610Z,0.00
2022-12-02T06:43:07.610Z,0.00
2022-12-02T06:43:57.618Z,0.00
2022-12-02T06:44:47.578Z,0.00
2022-12-02T06:45:37.637Z,0.00
2022-12-02T06:46:27.663Z,0.00
2022-12-02T06:47:17.579Z,0.00
2022-12-02T06:48:07.542Z,0.00
2022-12-02T06:48:57.527Z,0.00
2022-12-02T06:49:47.531Z,0.00
2022-12-02T06:50:42.104Z,0.00
2022-12-02T06:51:28.541Z,0.00
2022-12-02T06:52:17.490Z,0.00
2022-12-02T06:53:07.522Z,0.00
2022-12-02T06:53:57.477Z,0.00
2022-12-02T06:54:47.483Z,0.00
2022-12-02T06:55:37.461Z,0.00
2022-12-02T06:56:27.457Z,0.00
2022-12-02T06:57:17.495Z,0.00
2022-12-02T06:58:07.426Z,0.00
2022-12-02T06:58:57.439Z,0.00
2022-12-02T06:59:47.427Z,0.00
2022-12-02T07:00:37.396Z,0.00
2022-12-02T07:01:27.447Z,0.00
2022-12-02T07:02:17.655Z,0.00
2022-12-02T07:03:07.412Z,0.00
2022-12-02T07:03:57.365Z,0.00
2022-12-02T07:04:47.364Z,0.00
2022-12-02T07:05:37.354Z,0.00
2022-12-02T07:06:27.344Z,0.00
2022-12-02T07:07:17.333Z,0.00
2022-12-02T07:08:07.416Z,0.00
2022-12-02T07:08:57.304Z,0.00
2022-12-02T07:09:47.335Z,0.00
2022-12-02T07:10:37.294Z,0.00
2022-12-02T07:11:27.296Z,0.00
2022-12-02T07:12:17.268Z,0.00
2022-12-02T07:13:07.276Z,0.00
2022-12-02T07:13:57.285Z,0.00
2022-12-02T07:14:47.243Z,0.00
2022-12-02T07:15:37.286Z,0.00
2022-12-02T07:16:27.296Z,0.00
2022-12-02T07:17:17.233Z,0.00
2022-12-02T07:18:07.204Z,0.00
2022-12-02T07:18:57.204Z,0.00
2022-12-02T07:19:47.275Z,0.00
2022-12-02T07:20:37.172Z,0.00
2022-12-02T07:21:27.168Z,0.00
2022-12-02T07:22:17.181Z,0.00
2022-12-02T07:23:07.165Z,5.62
2022-12-02T07:23:57.164Z,5.62
2022-12-02T07:24:47.156Z,5.62
2022-12-02T07:25:37.302Z,5.62
2022-12-02T07:26:27.131Z,5.62
2022-12-02T07:27:17.112Z,5.62
2022-12-02T07:28:07.102Z,5.62
2022-12-02T07:29:14.512Z,5.62
2022-12-02T07:29:48.070Z,5.62
2022-12-02T07:30:37.139Z,5.62
2022-12-02T07:31:27.260Z,5.62
2022-12-02T07:32:17.079Z,5.62
2022-12-02T07:33:07.036Z,5.62
2022-12-02T07:33:57.061Z,5.62
2022-12-02T07:34:47.054Z,5.62
2022-12-02T07:35:37.036Z,5.62
2022-12-02T07:36:27.018Z,11.25
2022-12-02T07:37:17.013Z,11.25
2022-12-02T07:38:06.981Z,11.25
2022-12-02T07:39:05.932Z,11.25
2022-12-02T07:39:47.986Z,11.25
2022-12-02T07:40:36.949Z,11.25
2022-12-02T07:41:29.551Z,11.25
2022-12-02T07:42:18.011Z,11.25
2022-12-02T07:43:06.929Z,11.25
2022-12-02T07:43:56.926Z,11.25
2022-12-02T07:44:46.919Z,11.25
2022-12-02T07:45:36.907Z,11.25
2022-12-02T07:46:26.967Z,11.25
2022-12-02T07:47:16.888Z,11.25
2022-12-02T07:48:07.121Z,11.25
2022-12-02T07:48:57.524Z,11.25
2022-12-02T07:49:46.898Z,11.25
2022-12-02T07:50:36.876Z,11.25
2022-12-02T07:51:26.866Z,11.25
2022-12-02T07:52:16.833Z,11.25
2022-12-02T07:53:06.873Z,11.25
2022-12-02T07:53:56.812Z,11.25
2022-12-02T07:54:46.795Z,11.25
2022-12-02T07:55:37.005Z,11.25
2022-12-02T07:56:26.788Z,11.25
2022-12-02T07:57:16.765Z,11.25
2022-12-02T07:58:06.778Z,11.25
2022-12-02T07:59:11.959Z,11.25
2022-12-02T07:59:47.752Z,11.25
2022-12-02T08:00:36.749Z,16.88
2022-12-02T08:01:26.816Z,16.88
2022-12-02T08:02:16.727Z,16.88
2022-12-02T08:03:06.703Z,16.88
2022-12-02T08:03:56.686Z,16.88
2022-12-02T08:04:46.740Z,16.88
2022-12-02T08:05:36.686Z,16.88
2022-12-02T08:06:26.666Z,16.88
2022-12-02T08:07:16.683Z,22.50
2022-12-02T08:08:06.843Z,22.50
2022-12-02T08:08:56.642Z,22.50
2022-12-02T08:09:46.660Z,22.50
2022-12-02T08:10:36.642Z,22.50
2022-12-02T08:11:26.644Z,22.50
2022-12-02T08:12:16.606Z,22.50
2022-12-02T08:13:06.643Z,28.12
2022-12-02T08:13:56.582Z,28.12
2022-12-02T08:14:46.607Z,28.12
2022-12-02T08:15:36.623Z,28.12
2022-12-02T08:16:26.622Z,28.12
2022-12-02T08:17:16.543Z,28.12
2022-12-02T08:18:06.545Z,28.12
2022-12-02T08:18:56.759Z,28.12
2022-12-02T08:19:46.539Z,28.12
2022-12-02T08:20:36.533Z,33.75
2022-12-02T08:21:26.502Z,33.75
2022-12-02T08:22:16.497Z,33.75
2022-12-02T08:23:06.494Z,39.38
2022-12-02T08:23:56.479Z,45.00
2022-12-02T08:24:46.610Z,50.62
2022-12-02T08:25:36.463Z,56.25
2022-12-02T08:26:26.452Z,61.88
2022-12-02T08:27:16.432Z,61.88
2022-12-02T08:28:06.437Z,67.50
2022-12-02T08:28:56.433Z,67.50
2022-12-02T08:29:46.417Z,67.50
2022-12-02T08:30:36.470Z,73.12
2022-12-02T08:31:26.480Z,73.12
2022-12-02T08:32:16.376Z,73.12
2022-12-02T08:33:06.390Z,78.75
2022-12-02T08:33:56.378Z,78.75
2022-12-02T08:34:46.370Z,78.75
2022-12-02T08:35:36.355Z,84.38
2022-12-02T08:36:26.560Z,84.38
2022-12-02T08:37:16.354Z,84.38
2022-12-02T08:38:06.309Z,78.75
2022-12-02T08:38:56.307Z,73.12
2022-12-02T08:39:46.359Z,67.50
2022-12-02T08:40:36.277Z,61.88
2022-12-02T08:41:26.279Z,61.88
2022-12-02T08:42:16.484Z,61.88
2022-12-02T08:43:06.279Z,67.50
2022-12-02T08:43:56.265Z,67.50
2022-12-02T08:44:46.258Z,73.12
2022-12-02T08:45:36.237Z,73.12
2022-12-02T08:46:26.262Z,73.12
2022-12-02T08:47:16.233Z,73.12
2022-12-02T08:48:06.458Z,78.75
2022-12-02T08:48:56.206Z,78.75
2022-12-02T08:49:46.226Z,78.75
2022-12-02T08:50:36.178Z,78.75
2022-12-02T08:51:26.164Z,73.12
2022-12-02T08:52:16.186Z,73.12
2022-12-02T08:53:06.148Z,73.12
2022-12-02T08:53:56.203Z,78.75
2022-12-02T08:54:46.135Z,78.75
2022-12-02T08:55:36.200Z,78.75
2022-12-02T08:56:26.129Z,78.75
2022-12-02T08:57:16.119Z,73.12
2022-12-02T08:58:06.096Z,73.12
2022-12-02T08:58:56.084Z,67.50
2022-12-02T08:59:46.317Z,61.88
2022-12-02T09:00:39.269Z,56.25
2022-12-02T09:01:26.130Z,56.25
2022-12-02T09:02:16.127Z,50.62
2022-12-02T09:03:06.089Z,50.62
2022-12-02T09:03:56.030Z,56.25
2022-12-02T09:04:46.012Z,56.25
2022-12-02T09:05:36.234Z,56.25
2022-12-02T09:06:26.016Z,61.88
2022-12-02T09:07:15.989Z,61.88
2022-12-02T09:08:06.096Z,61.88
2022-12-02T09:08:56.016Z,67.50
2022-12-02T09:09:45.986Z,67.50
2022-12-02T09:10:36.010Z,73.12
2022-12-02T09:11:26.003Z,73.12
2022-12-02T09:12:15.943Z,73.12
2022-12-02T09:13:05.931Z,73.12
2022-12-02T09:13:55.931Z,67.50
2022-12-02T09:14:45.921Z,67.50
2022-12-02T09:15:35.927Z,61.88
2022-12-02T09:16:25.949Z,61.88
2022-12-02T09:17:15.919Z,56.25
2022-12-02T09:18:09.743Z,56.25
2022-12-02T09:18:56.858Z,56.25
2022-12-02T09:19:45.860Z,50.62
2022-12-02T09:20:35.857Z,50.62
2022-12-02T09:21:25.851Z,56.25
2022-12-02T09:22:15.820Z,56.25
2022-12-02T09:23:05.848Z,56.25
2022-12-02T09:23:55.818Z,56.25
2022-12-02T09:24:45.792Z,56.25
2022-12-02T09:25:35.799Z,56.25
2022-12-02T09:26:25.788Z,56.25
2022-12-02T09:27:16.453Z,56.25
2022-12-02T09:28:05.758Z,56.25
2022-12-02T09:28:55.808Z,56.25
2022-12-02T09:29:45.748Z,61.88
2022-12-02T09:30:35.748Z,67.50
2022-12-02T09:31:25.784Z,73.12
2022-12-02T09:32:15.718Z,73.12
2022-12-02T09:33:05.714Z,78.75
2022-12-02T09:33:55.717Z,78.75
2022-12-02T09:34:45.916Z,84.38
2022-12-02T09:35:35.685Z,84.38
2022-12-02T09:36:25.670Z,90.00
2022-12-02T09:37:15.657Z,95.62
2022-12-02T09:38:05.660Z,101.25
2022-12-02T09:38:55.642Z,106.88
2022-12-02T09:39:45.639Z,106.88
2022-12-02T09:40:35.639Z,106.88
2022-12-02T09:41:25.605Z,106.88
2022-12-02T09:42:15.614Z,106.88
2022-12-02T09:43:05.596Z,106.88
2022-12-02T09:43:55.599Z,106.88
2022-12-02T09:44:45.583Z,106.88
2022-12-02T09:45:35.555Z,106.88
2022-12-02T09:46:25.671Z,106.88
2022-12-02T09:47:15.541Z,106.88
2022-12-02T09:48:05.540Z,106.88
2022-12-02T09:48:55.524Z,106.88
2022-12-02T09:49:45.533Z,106.88
2022-12-02T09:50:35.512Z,106.88
2022-12-02T09:51:25.511Z,101.25
2022-12-02T09:52:15.545Z,101.25
2022-12-02T09:53:05.485Z,101.25
2022-12-02T09:53:55.482Z,101.25
2022-12-02T09:54:45.456Z,101.25
2022-12-02T09:55:35.452Z,101.25
2022-12-02T09:56:25.463Z,101.25
2022-12-02T09:57:15.441Z,95.62
2022-12-02T09:58:05.472Z,95.62
2022-12-02T09:58:55.428Z,90.00
2022-12-02T09:59:45.412Z,90.00
2022-12-02T10:00:35.411Z,84.38
2022-12-02T10:01:25.468Z,84.38
2022-12-02T10:02:15.577Z,84.38
2022-12-02T10:03:05.485Z,84.38
2022-12-02T10:03:55.605Z,78.75
2022-12-02T10:04:45.360Z,78.75
2022-12-02T10:05:35.333Z,78.75
2022-12-02T10:06:25.332Z,78.75
2022-12-02T10:07:15.332Z,78.75
2022-12-02T10:08:05.354Z,78.75
2022-12-02T10:08:55.301Z,84.38
2022-12-02T10:09:45.325Z,90.00
2022-12-02T10:10:35.304Z,95.62
2022-12-02T10:11:25.336Z,101.25
2022-12-02T10:12:15.283Z,101.25
2022-12-02T10:13:08.078Z,101.25
2022-12-02T10:13:55.272Z,101.25
2022-12-02T10:14:45.252Z,101.25
2022-12-02T10:15:35.272Z,101.25
2022-12-02T10:16:25.256Z,101.25
2022-12-02T10:17:15.220Z,106.88
2022-12-02T10:18:05.201Z,106.88
2022-12-02T10:18:55.201Z,106.88
2022-12-02T10:19:45.200Z,101.25
2022-12-02T10:20:35.189Z,101.25
2022-12-02T10:21:25.230Z,95.62
2022-12-02T10:22:15.183Z,95.62
2022-12-02T10:23:05.348Z,95.62
2022-12-02T10:23:55.136Z,95.62
2022-12-02T10:24:45.128Z,95.62
2022-12-02T10:25:35.126Z,95.62
2022-12-02T10:26:25.114Z,95.62
2022-12-02T10:27:15.212Z,95.62
2022-12-02T10:28:05.088Z,95.62
2022-12-02T10:28:55.117Z,95.62
2022-12-02T10:29:50.297Z,90.00
2022-12-02T10:30:36.073Z,90.00
2022-12-02T10:31:25.158Z,84.38
2022-12-02T10:32:15.057Z,78.75
2022-12-02T10:33:05.451Z,73.12
2022-12-02T10:33:55.028Z,67.50
2022-12-02T10:34:45.026Z,67.50
2022-12-02T10:35:35.025Z,67.50
2022-12-02T10:36:25.015Z,67.50
2022-12-02T10:37:15.003Z,67.50
2022-12-02T10:38:04.986Z,67.50
2022-12-02T10:38:55.048Z,67.50
2022-12-02T10:39:44.968Z,67.50
2022-12-02T10:40:35.055Z,67.50
2022-12-02T10:41:24.989Z,67.50
2022-12-02T10:42:14.942Z,67.50
2022-12-02T10:43:04.924Z,73.12
2022-12-02T10:43:54.934Z,73.12
2022-12-02T10:44:45.154Z,78.75
2022-12-02T10:45:34.894Z,78.75
2022-12-02T10:46:24.966Z,84.38
2022-12-02T10:47:14.883Z,84.38
2022-12-02T10:48:04.874Z,84.38
2022-12-02T10:48:54.892Z,78.75
2022-12-02T10:49:44.864Z,73.12
2022-12-02T10:50:34.876Z,67.50
2022-12-02T10:51:24.833Z,67.50
2022-12-02T10:52:14.856Z,61.88
2022-12-02T10:53:04.836Z,61.88
2022-12-02T10:53:54.803Z,56.25
2022-12-02T10:54:44.810Z,56.25
2022-12-02T10:55:34.792Z,56.25
2022-12-02T10:56:24.803Z,50.62
2022-12-02T10:57:14.783Z,50.62
2022-12-02T10:58:04.771Z,50.62